Zhytomyr, Ukraine
Current Conditions -  °F | °C
As of 7:00 AM on Wednesday 22 Oct 2014 (Local Time) from UKKM Reporting Station
Light Fog Light Fog  
Wind Chill:   Ceiling: Unl
Heat Index:   Visibility: 0.25mi
Dew Point:   Wind: 4mph
Humidity: 100%   Direction: 240°WSW
Pressure: 29.71"   Gusts: NA
Location:  50.25°N, 28.67°E
Report Text: UKKM 220400Z 24002MPS 0400 R33/2000VP2000D PRFG FEW004 SCT030 06/06 Q1006
Loading
Personal Weather Stations






























Interactive Weather Map
Tropical Storm Tracking
New forecast layout! Learn more

10-Day Weather Forecast

Advertisements
Track Severe Weather on mobile